createdAt,value
2022-08-07T00:02:41.265Z,16.35
2022-08-07T00:07:19.449Z,14.47
2022-08-07T00:12:21.916Z,14.41
2022-08-07T00:17:24.389Z,16.35
2022-08-07T00:22:34.889Z,16.46
2022-08-07T00:27:52.358Z,14.59
2022-08-07T00:33:00.271Z,14.58
2022-08-07T00:38:02.730Z,16.50
2022-08-07T00:43:09.783Z,16.32
2022-08-07T00:48:13.292Z,14.50
2022-08-07T00:53:16.517Z,15.22
2022-08-07T00:58:21.194Z,16.70
2022-08-07T01:03:54.817Z,15.43
2022-08-07T01:08:53.471Z,13.71
2022-08-07T01:13:58.486Z,13.90
2022-08-07T01:19:00.895Z,15.89
2022-08-07T01:24:07.713Z,15.99
2022-08-07T01:29:13.553Z,14.15
2022-08-07T01:34:18.882Z,14.07
2022-08-07T01:39:22.064Z,15.96
2022-08-07T01:44:24.829Z,15.81
2022-08-07T01:49:27.477Z,13.95
2022-08-07T01:54:39.465Z,13.86
2022-08-07T01:59:50.369Z,15.83
2022-08-07T02:04:59.144Z,15.87
2022-08-07T02:10:02.861Z,14.01
2022-08-07T02:15:07.134Z,13.91
2022-08-07T02:20:17.271Z,15.88
2022-08-07T02:26:10.658Z,15.86
2022-08-07T02:30:48.383Z,13.90
2022-08-07T02:36:29.322Z,13.83
2022-08-07T02:41:21.774Z,15.87
2022-08-07T02:46:26.231Z,15.76
2022-08-07T02:51:42.482Z,13.89
2022-08-07T02:56:54.859Z,13.87
2022-08-07T03:02:02.271Z,15.84
2022-08-07T03:07:07.391Z,15.73
2022-08-07T03:12:22.473Z,13.90
2022-08-07T03:17:52.983Z,13.90
2022-08-07T03:22:58.612Z,15.97
2022-08-07T03:28:09.690Z,15.57
2022-08-07T03:33:25.466Z,13.85
2022-08-07T03:38:43.732Z,14.25
2022-08-07T03:43:57.469Z,16.24
2022-08-07T03:49:02.535Z,15.64
2022-08-07T03:54:36.154Z,14.12
2022-08-07T03:59:28.696Z,14.42
2022-08-07T04:04:32.756Z,16.54
2022-08-07T04:09:45.419Z,15.91
2022-08-07T04:14:53.453Z,14.36
2022-08-07T04:19:58.841Z,14.72
2022-08-07T04:25:02.078Z,16.88
2022-08-07T04:30:11.820Z,16.70
2022-08-07T04:35:23.776Z,15.14
2022-08-07T04:40:26.624Z,15.37
2022-08-07T04:46:01.412Z,16.71
2022-08-07T04:51:18.318Z,15.51
2022-08-07T04:58:12.232Z,16.85
2022-08-07T05:02:26.840Z,17.33
2022-08-07T05:08:06.095Z,16.03
2022-08-07T05:14:53.108Z,17.50
2022-08-07T05:18:47.217Z,16.60
2022-08-07T05:23:57.320Z,16.24
2022-08-07T05:29:04.407Z,17.73
2022-08-07T05:34:12.180Z,16.82
2022-08-07T05:40:18.016Z,16.24
2022-08-07T05:44:46.635Z,18.11
2022-08-07T05:50:03.625Z,17.43
2022-08-07T05:55:10.809Z,16.49
2022-08-07T06:00:16.107Z,18.17
2022-08-07T06:05:28.197Z,19.08
2022-08-07T06:10:31.846Z,17.86
2022-08-07T06:15:42.567Z,17.30
2022-08-07T06:20:50.436Z,18.24
2022-08-07T06:26:13.042Z,19.51
2022-08-07T06:31:15.460Z,18.48
2022-08-07T06:36:34.795Z,18.00
2022-08-07T06:41:59.241Z,19.88
2022-08-07T06:47:10.369Z,19.77
2022-08-07T06:52:31.442Z,18.87
2022-08-07T06:57:43.549Z,18.64
2022-08-07T07:02:57.973Z,18.58
2022-08-07T07:08:07.099Z,18.64
2022-08-07T07:13:56.498Z,18.71
2022-08-07T07:18:48.010Z,18.81
2022-08-07T07:24:09.518Z,18.92
2022-08-07T07:29:39.147Z,19.13
2022-08-07T07:34:48.863Z,19.38
2022-08-07T07:39:56.302Z,19.44
2022-08-07T07:45:01.480Z,19.69
2022-08-07T07:50:32.961Z,19.96
2022-08-07T07:55:37.705Z,20.23
2022-08-07T08:00:53.799Z,20.24
2022-08-07T08:05:56.650Z,20.37
2022-08-07T08:11:00.362Z,20.68
2022-08-07T08:16:05.345Z,20.92
2022-08-07T08:21:55.914Z,20.97
2022-08-07T08:27:11.140Z,21.07
2022-08-07T08:32:25.120Z,21.22
2022-08-07T08:38:00.902Z,21.41
2022-08-07T08:42:56.067Z,21.64
2022-08-07T08:48:14.515Z,21.27
2022-08-07T08:53:42.912Z,21.12
2022-08-07T08:59:13.956Z,21.33
2022-08-07T09:04:36.624Z,21.69
2022-08-07T09:09:56.521Z,21.82
2022-08-07T09:16:22.034Z,21.98
2022-08-07T09:20:43.637Z,22.24
2022-08-07T09:26:17.178Z,22.52
2022-08-07T09:31:48.741Z,22.78
2022-08-07T09:37:04.514Z,22.96
2022-08-07T09:42:38.979Z,23.14
2022-08-07T09:48:04.019Z,23.62
2022-08-07T09:53:12.858Z,23.88
2022-08-07T09:58:32.871Z,24.14
2022-08-07T10:04:05.848Z,24.26
2022-08-07T10:10:00.074Z,24.45
2022-08-07T10:15:08.307Z,24.65
2022-08-07T10:20:50.476Z,24.58
2022-08-07T10:26:24.654Z,24.52
2022-08-07T10:31:45.130Z,24.56
2022-08-07T10:37:19.807Z,24.49
2022-08-07T10:42:52.177Z,24.72
2022-08-07T10:48:13.394Z,24.99
2022-08-07T10:53:50.553Z,24.97
2022-08-07T10:59:06.761Z,25.48
2022-08-07T11:04:31.899Z,25.95
2022-08-07T11:10:07.481Z,26.39
2022-08-07T11:15:17.426Z,25.97
2022-08-07T11:20:38.850Z,25.58
2022-08-07T11:25:52.843Z,25.48
2022-08-07T11:31:19.802Z,25.54
2022-08-07T11:37:06.778Z,25.36
2022-08-07T11:42:19.488Z,25.49
2022-08-07T11:47:55.952Z,25.84
2022-08-07T11:53:27.844Z,26.31
2022-08-07T12:00:07.689Z,26.83
2022-08-07T12:05:15.127Z,26.88
2022-08-07T12:10:42.182Z,26.18
2022-08-07T12:16:05.877Z,25.47
2022-08-07T12:22:35.838Z,25.07
2022-08-07T12:27:14.923Z,25.38
2022-08-07T12:32:29.754Z,25.76
2022-08-07T12:38:11.517Z,25.48
2022-08-07T12:43:00.415Z,25.01
2022-08-07T12:48:27.717Z,24.62
2022-08-07T12:54:36.511Z,24.38
2022-08-07T12:59:22.468Z,24.46
2022-08-07T13:05:01.053Z,24.40
2022-08-07T13:10:39.757Z,24.30
2022-08-07T13:16:10.553Z,24.40
2022-08-07T13:21:54.909Z,24.63
2022-08-07T13:27:10.246Z,24.95
2022-08-07T13:32:32.866Z,25.45
2022-08-07T13:38:00.948Z,26.46
2022-08-07T13:43:12.322Z,27.20
2022-08-07T13:48:27.602Z,27.14
2022-08-07T13:53:59.667Z,26.70
2022-08-07T13:59:05.463Z,26.23
2022-08-07T14:04:11.397Z,25.83
2022-08-07T14:10:00.693Z,25.61
2022-08-07T14:14:52.677Z,25.79
2022-08-07T14:20:39.905Z,26.21
2022-08-07T14:25:39.591Z,27.40
2022-08-07T14:30:52.256Z,28.21
2022-08-07T14:35:58.612Z,28.13
2022-08-07T14:41:12.384Z,26.99
2022-08-07T14:46:24.811Z,25.91
2022-08-07T14:52:03.861Z,25.10
2022-08-07T14:57:02.186Z,24.64
2022-08-07T15:02:32.945Z,24.64
2022-08-07T15:07:47.228Z,24.73
2022-08-07T15:12:54.927Z,24.80
2022-08-07T15:18:14.296Z,25.13
2022-08-07T15:34:22.357Z,25.79
2022-08-07T15:39:56.828Z,25.25
2022-08-07T15:44:52.645Z,24.99
2022-08-07T15:50:03.700Z,26.51
2022-08-07T15:55:11.454Z,28.21
2022-08-07T16:00:31.273Z,28.54
2022-08-07T16:05:38.248Z,27.92
2022-08-07T16:10:47.309Z,27.40
2022-08-07T16:16:48.784Z,26.95
2022-08-07T16:22:31.582Z,27.01
2022-08-07T16:27:57.372Z,27.53
2022-08-07T16:34:01.956Z,26.90
2022-08-07T16:39:03.608Z,26.00
2022-08-07T16:45:03.829Z,25.10
2022-08-07T16:50:36.162Z,24.16
2022-08-07T16:56:11.930Z,23.41
2022-08-07T17:01:34.490Z,22.96
2022-08-07T17:07:02.835Z,22.73
2022-08-07T17:12:33.927Z,22.71
2022-08-07T17:17:46.459Z,22.48
2022-08-07T17:23:11.465Z,22.19
2022-08-07T17:28:20.115Z,21.91
2022-08-07T17:34:08.646Z,21.63
2022-08-07T17:39:01.488Z,21.39
2022-08-07T17:44:15.643Z,21.13
2022-08-07T17:49:45.091Z,20.87
2022-08-07T17:54:53.644Z,20.56
2022-08-07T18:00:06.272Z,20.21
2022-08-07T18:06:01.773Z,19.92
2022-08-07T18:12:07.606Z,19.65
2022-08-07T18:16:31.199Z,19.40
2022-08-07T18:22:00.478Z,19.15
2022-08-07T18:27:21.098Z,18.93
2022-08-07T18:32:46.338Z,18.71
2022-08-07T18:38:55.691Z,18.48
2022-08-07T18:44:03.062Z,18.22
2022-08-07T18:50:30.075Z,17.98
2022-08-07T18:55:43.267Z,17.74
2022-08-07T19:02:33.084Z,17.53
2022-08-07T19:06:57.640Z,17.33
2022-08-07T19:12:04.981Z,17.17
2022-08-07T19:17:55.595Z,17.34
2022-08-07T19:23:17.921Z,19.74
2022-08-07T19:28:30.701Z,19.08
2022-08-07T19:33:58.044Z,18.04
2022-08-07T19:39:01.747Z,17.47
2022-08-07T19:44:21.255Z,17.06
2022-08-07T19:49:58.602Z,16.75
2022-08-07T19:54:55.945Z,16.49
2022-08-07T20:00:09.038Z,17.12
2022-08-07T20:05:16.583Z,19.55
2022-08-07T20:10:36.213Z,19.09
2022-08-07T20:15:55.149Z,17.74
2022-08-07T20:21:20.809Z,17.05
2022-08-07T20:26:32.065Z,17.59
2022-08-07T20:31:44.900Z,19.57
2022-08-07T20:36:51.812Z,18.44
2022-08-07T20:41:54.811Z,17.32
2022-08-07T20:47:05.626Z,16.72
2022-08-07T20:52:30.041Z,17.36
2022-08-07T20:58:04.177Z,19.59
2022-08-07T21:03:23.238Z,18.52
2022-08-07T21:08:38.268Z,17.44
2022-08-07T21:14:20.114Z,16.83
2022-08-07T21:19:15.515Z,16.61
2022-08-07T21:24:32.338Z,18.62
2022-08-07T21:29:53.416Z,19.46
2022-08-07T21:34:58.358Z,18.06
2022-08-07T21:40:13.691Z,17.31
2022-08-07T21:46:08.365Z,16.82
2022-08-07T21:50:53.787Z,16.90
2022-08-07T21:56:35.755Z,19.20
2022-08-07T22:02:10.905Z,19.47
2022-08-07T22:07:05.599Z,18.09
2022-08-07T22:12:31.515Z,17.29
2022-08-07T22:17:40.511Z,16.70
2022-08-07T22:23:01.472Z,17.61
2022-08-07T22:28:32.214Z,19.69
2022-08-07T22:33:57.226Z,18.66
2022-08-07T22:39:12.889Z,17.63
2022-08-07T22:44:22.296Z,17.09
2022-08-07T22:49:42.817Z,16.65
2022-08-07T22:55:00.310Z,17.48
2022-08-07T23:00:28.784Z,19.49
2022-08-07T23:06:10.127Z,18.39
2022-08-07T23:11:48.349Z,17.16
2022-08-07T23:17:12.762Z,16.49
2022-08-07T23:22:40.074Z,16.05
2022-08-07T23:28:21.549Z,16.84
2022-08-07T23:34:35.633Z,19.23
2022-08-07T23:39:22.061Z,18.59
2022-08-07T23:44:40.994Z,17.24
2022-08-07T23:50:07.654Z,16.47
2022-08-07T23:55:52.193Z,15.92
